sensor_id;sensor_type;location;lat;lon;timestamp;P1;durP1;ratioP1;P2;durP2;ratioP2
83747;SDS011;73737;52.364;17.120;2024-02-16T00:01:34;36.40;;;20.30;;
83747;SDS011;73737;52.364;17.120;2024-02-16T00:04:04;35.50;;;19.30;;
83747;SDS011;73737;52.364;17.120;2024-02-16T00:06:32;29.70;;;17.00;;
83747;SDS011;73737;52.364;17.120;2024-02-16T00:09:01;32.20;;;19.00;;
83747;SDS011;73737;52.364;17.120;2024-02-16T00:11:30;35.30;;;19.20;;
83747;SDS011;73737;52.364;17.120;2024-02-16T00:13:58;32.60;;;18.10;;
83747;SDS011;73737;52.364;17.120;2024-02-16T00:16:26;34.80;;;17.90;;
83747;SDS011;73737;52.364;17.120;2024-02-16T00:18:55;32.60;;;16.80;;
83747;SDS011;73737;52.364;17.120;2024-02-16T00:21:23;27.70;;;17.40;;
83747;SDS011;73737;52.364;17.120;2024-02-16T00:23:51;27.80;;;16.80;;
83747;SDS011;73737;52.364;17.120;2024-02-16T00:26:20;34.60;;;17.20;;
83747;SDS011;73737;52.364;17.120;2024-02-16T00:28:49;31.40;;;16.60;;
83747;SDS011;73737;52.364;17.120;2024-02-16T00:31:17;30.20;;;18.40;;
83747;SDS011;73737;52.364;17.120;2024-02-16T00:33:47;33.10;;;18.20;;
83747;SDS011;73737;52.364;17.120;2024-02-16T00:36:15;30.40;;;17.10;;
83747;SDS011;73737;52.364;17.120;2024-02-16T00:38:44;30.70;;;17.40;;
83747;SDS011;73737;52.364;17.120;2024-02-16T00:41:19;23.70;;;12.90;;
83747;SDS011;73737;52.364;17.120;2024-02-16T00:43:48;34.30;;;20.00;;
83747;SDS011;73737;52.364;17.120;2024-02-16T00:46:17;31.10;;;17.50;;
83747;SDS011;73737;52.364;17.120;2024-02-16T00:48:46;29.00;;;17.10;;
83747;SDS011;73737;52.364;17.120;2024-02-16T00:51:15;29.40;;;18.40;;
83747;SDS011;73737;52.364;17.120;2024-02-16T00:53:43;33.70;;;19.10;;
83747;SDS011;73737;52.364;17.120;2024-02-16T00:56:11;27.90;;;16.00;;
83747;SDS011;73737;52.364;17.120;2024-02-16T00:58:40;34.00;;;17.50;;
83747;SDS011;73737;52.364;17.120;2024-02-16T01:01:10;28.10;;;16.70;;
83747;SDS011;73737;52.364;17.120;2024-02-16T01:03:40;31.90;;;17.10;;
83747;SDS011;73737;52.364;17.120;2024-02-16T01:06:08;30.80;;;17.80;;
83747;SDS011;73737;52.364;17.120;2024-02-16T01:08:38;30.40;;;16.20;;
83747;SDS011;73737;52.364;17.120;2024-02-16T01:11:06;31.40;;;17.10;;
83747;SDS011;73737;52.364;17.120;2024-02-16T01:13:35;30.10;;;17.50;;
83747;SDS011;73737;52.364;17.120;2024-02-16T01:16:03;33.10;;;17.30;;
83747;SDS011;73737;52.364;17.120;2024-02-16T01:18:32;31.60;;;18.00;;
83747;SDS011;73737;52.364;17.120;2024-02-16T01:21:00;35.50;;;20.00;;
83747;SDS011;73737;52.364;17.120;2024-02-16T01:23:29;30.50;;;17.60;;
83747;SDS011;73737;52.364;17.120;2024-02-16T01:25:58;30.70;;;17.90;;
83747;SDS011;73737;52.364;17.120;2024-02-16T01:28:26;28.20;;;15.00;;
83747;SDS011;73737;52.364;17.120;2024-02-16T01:30:55;29.30;;;16.60;;
83747;SDS011;73737;52.364;17.120;2024-02-16T01:33:26;27.40;;;16.10;;
83747;SDS011;73737;52.364;17.120;2024-02-16T01:35:55;34.70;;;19.60;;
83747;SDS011;73737;52.364;17.120;2024-02-16T01:38:24;33.20;;;17.30;;
83747;SDS011;73737;52.364;17.120;2024-02-16T01:40:52;30.80;;;18.40;;
83747;SDS011;73737;52.364;17.120;2024-02-16T01:43:20;35.10;;;18.90;;
83747;SDS011;73737;52.364;17.120;2024-02-16T01:45:49;31.10;;;17.10;;
83747;SDS011;73737;52.364;17.120;2024-02-16T01:48:21;32.50;;;18.50;;
83747;SDS011;73737;52.364;17.120;2024-02-16T01:50:49;37.00;;;21.70;;
83747;SDS011;73737;52.364;17.120;2024-02-16T01:53:17;31.00;;;19.20;;
83747;SDS011;73737;52.364;17.120;2024-02-16T01:55:46;29.40;;;17.80;;
83747;SDS011;73737;52.364;17.120;2024-02-16T01:58:15;38.40;;;22.00;;
83747;SDS011;73737;52.364;17.120;2024-02-16T02:00:43;35.00;;;18.50;;
83747;SDS011;73737;52.364;17.120;2024-02-16T02:03:12;35.70;;;19.00;;
83747;SDS011;73737;52.364;17.120;2024-02-16T02:05:44;32.40;;;19.80;;
83747;SDS011;73737;52.364;17.120;2024-02-16T02:08:15;32.70;;;17.60;;
83747;SDS011;73737;52.364;17.120;2024-02-16T02:10:46;34.10;;;19.40;;
83747;SDS011;73737;52.364;17.120;2024-02-16T02:13:14;29.00;;;17.80;;
83747;SDS011;73737;52.364;17.120;2024-02-16T02:15:43;33.20;;;18.80;;
83747;SDS011;73737;52.364;17.120;2024-02-16T02:18:11;30.40;;;18.10;;
83747;SDS011;73737;52.364;17.120;2024-02-16T02:20:39;32.50;;;17.40;;
83747;SDS011;73737;52.364;17.120;2024-02-16T02:23:08;28.10;;;16.80;;
83747;SDS011;73737;52.364;17.120;2024-02-16T02:25:36;29.50;;;16.40;;
83747;SDS011;73737;52.364;17.120;2024-02-16T02:28:04;28.70;;;17.90;;
83747;SDS011;73737;52.364;17.120;2024-02-16T02:30:34;37.00;;;21.50;;
83747;SDS011;73737;52.364;17.120;2024-02-16T02:33:02;33.60;;;18.10;;
83747;SDS011;73737;52.364;17.120;2024-02-16T02:35:31;38.00;;;21.00;;
83747;SDS011;73737;52.364;17.120;2024-02-16T02:37:59;39.50;;;21.80;;
83747;SDS011;73737;52.364;17.120;2024-02-16T02:40:27;33.60;;;19.40;;
83747;SDS011;73737;52.364;17.120;2024-02-16T02:42:55;40.50;;;22.50;;
83747;SDS011;73737;52.364;17.120;2024-02-16T02:45:23;38.30;;;20.00;;
83747;SDS011;73737;52.364;17.120;2024-02-16T02:47:52;37.40;;;22.80;;
83747;SDS011;73737;52.364;17.120;2024-02-16T02:50:20;42.60;;;24.10;;
83747;SDS011;73737;52.364;17.120;2024-02-16T02:52:48;40.20;;;23.20;;
83747;SDS011;73737;52.364;17.120;2024-02-16T02:55:16;40.70;;;23.10;;
83747;SDS011;73737;52.364;17.120;2024-02-16T02:57:45;39.90;;;23.80;;
83747;SDS011;73737;52.364;17.120;2024-02-16T03:00:14;38.70;;;24.00;;
83747;SDS011;73737;52.364;17.120;2024-02-16T03:02:43;43.40;;;25.70;;
83747;SDS011;73737;52.364;17.120;2024-02-16T03:05:15;43.40;;;23.90;;
83747;SDS011;73737;52.364;17.120;2024-02-16T03:07:43;37.10;;;21.60;;
83747;SDS011;73737;52.364;17.120;2024-02-16T03:10:11;33.50;;;19.10;;
83747;SDS011;73737;52.364;17.120;2024-02-16T03:12:40;35.40;;;22.30;;
83747;SDS011;73737;52.364;17.120;2024-02-16T03:15:08;38.90;;;21.90;;
83747;SDS011;73737;52.364;17.120;2024-02-16T03:17:36;35.10;;;20.60;;
83747;SDS011;73737;52.364;17.120;2024-02-16T03:20:05;33.10;;;19.20;;
83747;SDS011;73737;52.364;17.120;2024-02-16T03:22:35;33.30;;;19.20;;
83747;SDS011;73737;52.364;17.120;2024-02-16T03:25:04;29.40;;;17.90;;
83747;SDS011;73737;52.364;17.120;2024-02-16T03:27:33;31.70;;;18.70;;
83747;SDS011;73737;52.364;17.120;2024-02-16T03:30:02;31.20;;;17.10;;
83747;SDS011;73737;52.364;17.120;2024-02-16T03:32:31;32.50;;;17.50;;
83747;SDS011;73737;52.364;17.120;2024-02-16T03:34:59;36.00;;;17.50;;
83747;SDS011;73737;52.364;17.120;2024-02-16T03:37:28;30.30;;;16.40;;
83747;SDS011;73737;52.364;17.120;2024-02-16T03:39:56;29.20;;;17.40;;
83747;SDS011;73737;52.364;17.120;2024-02-16T03:42:25;27.70;;;15.50;;
83747;SDS011;73737;52.364;17.120;2024-02-16T03:44:53;28.80;;;16.10;;
83747;SDS011;73737;52.364;17.120;2024-02-16T03:47:21;26.00;;;14.00;;
83747;SDS011;73737;52.364;17.120;2024-02-16T03:49:49;31.20;;;16.80;;
83747;SDS011;73737;52.364;17.120;2024-02-16T03:52:17;27.50;;;15.70;;
83747;SDS011;73737;52.364;17.120;2024-02-16T03:54:46;28.40;;;17.00;;
83747;SDS011;73737;52.364;17.120;2024-02-16T03:57:18;35.10;;;20.20;;
83747;SDS011;73737;52.364;17.120;2024-02-16T03:59:46;30.50;;;17.90;;
83747;SDS011;73737;52.364;17.120;2024-02-16T04:02:15;32.30;;;17.80;;
83747;SDS011;73737;52.364;17.120;2024-02-16T04:04:44;30.30;;;16.40;;
83747;SDS011;73737;52.364;17.120;2024-02-16T04:07:12;35.30;;;20.10;;
83747;SDS011;73737;52.364;17.120;2024-02-16T04:09:41;28.80;;;17.30;;
83747;SDS011;73737;52.364;17.120;2024-02-16T04:12:09;26.90;;;16.50;;
83747;SDS011;73737;52.364;17.120;2024-02-16T04:14:38;24.30;;;16.10;;
83747;SDS011;73737;52.364;17.120;2024-02-16T04:17:06;27.50;;;17.00;;
83747;SDS011;73737;52.364;17.120;2024-02-16T04:19:36;28.80;;;17.30;;
83747;SDS011;73737;52.364;17.120;2024-02-16T04:22:05;30.70;;;17.70;;
83747;SDS011;73737;52.364;17.120;2024-02-16T04:24:33;34.10;;;19.10;;
83747;SDS011;73737;52.364;17.120;2024-02-16T04:27:02;28.20;;;17.30;;
83747;SDS011;73737;52.364;17.120;2024-02-16T04:29:30;27.10;;;16.00;;
83747;SDS011;73737;52.364;17.120;2024-02-16T04:31:58;26.10;;;14.50;;
83747;SDS011;73737;52.364;17.120;2024-02-16T04:34:26;27.90;;;16.50;;
83747;SDS011;73737;52.364;17.120;2024-02-16T04:36:55;23.50;;;13.80;;
83747;SDS011;73737;52.364;17.120;2024-02-16T04:39:23;26.00;;;15.50;;
83747;SDS011;73737;52.364;17.120;2024-02-16T04:41:51;25.10;;;13.80;;
83747;SDS011;73737;52.364;17.120;2024-02-16T04:44:21;26.90;;;16.00;;
83747;SDS011;73737;52.364;17.120;2024-02-16T04:46:50;32.00;;;18.20;;
83747;SDS011;73737;52.364;17.120;2024-02-16T04:49:20;33.40;;;19.20;;
83747;SDS011;73737;52.364;17.120;2024-02-16T04:51:49;32.40;;;19.30;;
83747;SDS011;73737;52.364;17.120;2024-02-16T04:54:17;30.60;;;17.60;;
83747;SDS011;73737;52.364;17.120;2024-02-16T04:56:45;32.90;;;20.10;;
83747;SDS011;73737;52.364;17.120;2024-02-16T04:59:14;34.60;;;20.60;;
83747;SDS011;73737;52.364;17.120;2024-02-16T05:01:43;37.20;;;19.80;;
83747;SDS011;73737;52.364;17.120;2024-02-16T05:04:15;36.70;;;19.40;;
83747;SDS011;73737;52.364;17.120;2024-02-16T05:06:47;34.20;;;20.50;;
83747;SDS011;73737;52.364;17.120;2024-02-16T05:09:15;36.70;;;19.30;;
83747;SDS011;73737;52.364;17.120;2024-02-16T05:11:45;32.60;;;19.30;;
83747;SDS011;73737;52.364;17.120;2024-02-16T05:14:16;30.20;;;17.40;;
83747;SDS011;73737;52.364;17.120;2024-02-16T05:16:45;35.60;;;18.70;;
83747;SDS011;73737;52.364;17.120;2024-02-16T05:19:14;38.50;;;20.50;;
83747;SDS011;73737;52.364;17.120;2024-02-16T05:21:42;27.20;;;15.50;;
83747;SDS011;73737;52.364;17.120;2024-02-16T05:24:10;36.00;;;19.10;;
83747;SDS011;73737;52.364;17.120;2024-02-16T05:26:38;33.10;;;19.10;;
83747;SDS011;73737;52.364;17.120;2024-02-16T05:29:07;40.00;;;21.70;;
83747;SDS011;73737;52.364;17.120;2024-02-16T05:31:35;33.40;;;17.60;;
83747;SDS011;73737;52.364;17.120;2024-02-16T05:34:03;39.60;;;22.40;;
83747;SDS011;73737;52.364;17.120;2024-02-16T05:36:32;36.50;;;21.00;;
83747;SDS011;73737;52.364;17.120;2024-02-16T05:39:03;37.80;;;22.40;;
83747;SDS011;73737;52.364;17.120;2024-02-16T05:41:48;37.10;;;22.40;;
83747;SDS011;73737;52.364;17.120;2024-02-16T05:44:16;36.10;;;18.20;;
83747;SDS011;73737;52.364;17.120;2024-02-16T05:46:44;30.30;;;18.90;;
83747;SDS011;73737;52.364;17.120;2024-02-16T05:49:15;40.00;;;24.00;;
83747;SDS011;73737;52.364;17.120;2024-02-16T05:51:44;35.50;;;20.80;;
83747;SDS011;73737;52.364;17.120;2024-02-16T05:54:32;37.80;;;22.20;;
83747;SDS011;73737;52.364;17.120;2024-02-16T05:57:00;39.60;;;21.90;;
83747;SDS011;73737;52.364;17.120;2024-02-16T05:59:29;38.30;;;22.10;;
83747;SDS011;73737;52.364;17.120;2024-02-16T06:01:57;34.00;;;19.90;;
83747;SDS011;73737;52.364;17.120;2024-02-16T06:04:26;38.20;;;22.10;;
83747;SDS011;73737;52.364;17.120;2024-02-16T06:06:55;33.70;;;17.80;;
83747;SDS011;73737;52.364;17.120;2024-02-16T06:09:23;41.20;;;22.30;;
83747;SDS011;73737;52.364;17.120;2024-02-16T06:11:51;38.30;;;22.10;;
83747;SDS011;73737;52.364;17.120;2024-02-16T06:14:19;32.80;;;18.90;;
83747;SDS011;73737;52.364;17.120;2024-02-16T06:16:51;41.20;;;23.10;;
83747;SDS011;73737;52.364;17.120;2024-02-16T06:19:19;38.90;;;21.30;;
83747;SDS011;73737;52.364;17.120;2024-02-16T06:21:48;36.70;;;19.80;;
83747;SDS011;73737;52.364;17.120;2024-02-16T06:24:16;35.20;;;21.60;;
83747;SDS011;73737;52.364;17.120;2024-02-16T06:26:45;36.00;;;20.00;;
83747;SDS011;73737;52.364;17.120;2024-02-16T06:29:13;35.10;;;19.60;;
83747;SDS011;73737;52.364;17.120;2024-02-16T06:31:41;38.40;;;20.00;;
83747;SDS011;73737;52.364;17.120;2024-02-16T06:34:10;33.20;;;18.70;;
83747;SDS011;73737;52.364;17.120;2024-02-16T06:36:38;36.00;;;19.80;;
83747;SDS011;73737;52.364;17.120;2024-02-16T06:39:06;37.80;;;20.00;;
83747;SDS011;73737;52.364;17.120;2024-02-16T06:41:35;38.20;;;21.60;;
83747;SDS011;73737;52.364;17.120;2024-02-16T06:44:06;34.50;;;18.80;;
83747;SDS011;73737;52.364;17.120;2024-02-16T06:46:34;35.00;;;20.90;;
83747;SDS011;73737;52.364;17.120;2024-02-16T06:49:02;33.70;;;20.00;;
83747;SDS011;73737;52.364;17.120;2024-02-16T06:51:31;40.60;;;22.40;;
83747;SDS011;73737;52.364;17.120;2024-02-16T06:53:59;33.20;;;20.20;;
83747;SDS011;73737;52.364;17.120;2024-02-16T06:56:35;39.00;;;21.90;;
83747;SDS011;73737;52.364;17.120;2024-02-16T06:59:03;34.50;;;20.10;;
83747;SDS011;73737;52.364;17.120;2024-02-16T07:01:32;34.00;;;18.30;;
83747;SDS011;73737;52.364;17.120;2024-02-16T07:04:00;31.50;;;18.70;;
83747;SDS011;73737;52.364;17.120;2024-02-16T07:06:29;31.70;;;19.50;;
83747;SDS011;73737;52.364;17.120;2024-02-16T07:08:57;37.80;;;22.90;;
83747;SDS011;73737;52.364;17.120;2024-02-16T07:11:26;32.60;;;18.80;;
83747;SDS011;73737;52.364;17.120;2024-02-16T07:13:54;36.30;;;19.60;;
83747;SDS011;73737;52.364;17.120;2024-02-16T07:16:22;33.60;;;17.90;;
83747;SDS011;73737;52.364;17.120;2024-02-16T07:18:51;36.00;;;21.70;;
83747;SDS011;73737;52.364;17.120;2024-02-16T07:21:19;37.20;;;20.70;;
83747;SDS011;73737;52.364;17.120;2024-02-16T07:23:50;33.70;;;20.20;;
83747;SDS011;73737;52.364;17.120;2024-02-16T07:26:18;23.60;;;13.10;;
83747;SDS011;73737;52.364;17.120;2024-02-16T07:28:47;36.20;;;21.10;;
83747;SDS011;73737;52.364;17.120;2024-02-16T07:31:15;33.70;;;19.50;;
83747;SDS011;73737;52.364;17.120;2024-02-16T07:33:44;31.80;;;17.90;;
83747;SDS011;73737;52.364;17.120;2024-02-16T07:36:12;29.60;;;18.30;;
83747;SDS011;73737;52.364;17.120;2024-02-16T07:38:42;29.90;;;16.60;;
83747;SDS011;73737;52.364;17.120;2024-02-16T07:41:10;28.90;;;16.10;;
83747;SDS011;73737;52.364;17.120;2024-02-16T07:43:38;28.90;;;16.80;;
83747;SDS011;73737;52.364;17.120;2024-02-16T07:46:06;27.50;;;16.70;;
83747;SDS011;73737;52.364;17.120;2024-02-16T07:48:37;29.80;;;16.20;;
83747;SDS011;73737;52.364;17.120;2024-02-16T07:51:05;26.90;;;16.00;;
83747;SDS011;73737;52.364;17.120;2024-02-16T07:53:33;21.90;;;12.70;;
83747;SDS011;73737;52.364;17.120;2024-02-16T07:56:02;22.80;;;12.90;;
83747;SDS011;73737;52.364;17.120;2024-02-16T07:58:31;24.50;;;14.30;;
83747;SDS011;73737;52.364;17.120;2024-02-16T08:00:59;34.70;;;17.30;;
83747;SDS011;73737;52.364;17.120;2024-02-16T08:03:28;46.20;;;21.60;;
83747;SDS011;73737;52.364;17.120;2024-02-16T08:05:57;48.10;;;21.80;;
83747;SDS011;73737;52.364;17.120;2024-02-16T08:08:25;28.10;;;13.80;;
83747;SDS011;73737;52.364;17.120;2024-02-16T08:10:54;39.40;;;18.60;;
83747;SDS011;73737;52.364;17.120;2024-02-16T08:13:22;32.70;;;17.90;;
83747;SDS011;73737;52.364;17.120;2024-02-16T08:15:50;55.90;;;23.20;;
83747;SDS011;73737;52.364;17.120;2024-02-16T08:18:19;43.20;;;20.00;;
83747;SDS011;73737;52.364;17.120;2024-02-16T08:20:48;41.40;;;19.70;;
83747;SDS011;73737;52.364;17.120;2024-02-16T08:23:16;33.80;;;17.90;;
83747;SDS011;73737;52.364;17.120;2024-02-16T08:25:45;21.20;;;11.70;;
83747;SDS011;73737;52.364;17.120;2024-02-16T08:28:13;21.90;;;12.30;;
83747;SDS011;73737;52.364;17.120;2024-02-16T08:30:42;24.70;;;14.30;;
83747;SDS011;73737;52.364;17.120;2024-02-16T08:33:11;29.20;;;15.40;;
83747;SDS011;73737;52.364;17.120;2024-02-16T08:35:43;26.70;;;16.00;;
83747;SDS011;73737;52.364;17.120;2024-02-16T08:38:11;23.80;;;14.20;;
83747;SDS011;73737;52.364;17.120;2024-02-16T08:40:40;22.60;;;14.20;;
83747;SDS011;73737;52.364;17.120;2024-02-16T08:43:08;24.90;;;16.20;;
83747;SDS011;73737;52.364;17.120;2024-02-16T08:45:36;25.10;;;13.90;;
83747;SDS011;73737;52.364;17.120;2024-02-16T08:48:05;27.90;;;14.00;;
83747;SDS011;73737;52.364;17.120;2024-02-16T08:50:34;23.30;;;13.70;;
83747;SDS011;73737;52.364;17.120;2024-02-16T08:53:03;23.00;;;12.50;;
83747;SDS011;73737;52.364;17.120;2024-02-16T08:55:31;21.00;;;12.70;;
83747;SDS011;73737;52.364;17.120;2024-02-16T08:58:00;19.70;;;12.30;;
83747;SDS011;73737;52.364;17.120;2024-02-16T09:00:28;18.90;;;11.90;;
83747;SDS011;73737;52.364;17.120;2024-02-16T09:02:56;17.60;;;11.30;;
83747;SDS011;73737;52.364;17.120;2024-02-16T09:05:26;20.70;;;12.70;;
83747;SDS011;73737;52.364;17.120;2024-02-16T09:07:54;18.10;;;11.90;;
83747;SDS011;73737;52.364;17.120;2024-02-16T09:10:23;21.40;;;14.40;;
83747;SDS011;73737;52.364;17.120;2024-02-16T09:12:51;20.20;;;13.10;;
83747;SDS011;73737;52.364;17.120;2024-02-16T09:15:19;18.30;;;12.70;;
83747;SDS011;73737;52.364;17.120;2024-02-16T09:17:48;17.60;;;12.90;;
83747;SDS011;73737;52.364;17.120;2024-02-16T09:20:16;17.70;;;13.40;;
83747;SDS011;73737;52.364;17.120;2024-02-16T09:22:50;18.70;;;13.00;;
83747;SDS011;73737;52.364;17.120;2024-02-16T09:25:18;17.70;;;13.80;;
83747;SDS011;73737;52.364;17.120;2024-02-16T09:27:47;19.00;;;13.70;;
83747;SDS011;73737;52.364;17.120;2024-02-16T09:30:17;15.80;;;11.90;;
83747;SDS011;73737;52.364;17.120;2024-02-16T09:32:46;17.00;;;12.40;;
83747;SDS011;73737;52.364;17.120;2024-02-16T09:35:14;16.90;;;12.50;;
83747;SDS011;73737;52.364;17.120;2024-02-16T09:37:42;14.30;;;12.60;;
83747;SDS011;73737;52.364;17.120;2024-02-16T09:40:11;15.20;;;12.90;;
83747;SDS011;73737;52.364;17.120;2024-02-16T09:42:40;16.00;;;11.90;;
83747;SDS011;73737;52.364;17.120;2024-02-16T09:45:08;14.80;;;12.70;;
83747;SDS011;73737;52.364;17.120;2024-02-16T09:47:40;17.20;;;13.80;;
83747;SDS011;73737;52.364;17.120;2024-02-16T09:50:10;14.50;;;11.70;;
83747;SDS011;73737;52.364;17.120;2024-02-16T09:52:39;14.60;;;11.60;;
83747;SDS011;73737;52.364;17.120;2024-02-16T09:55:11;15.00;;;12.00;;
83747;SDS011;73737;52.364;17.120;2024-02-16T09:57:40;15.20;;;12.10;;
83747;SDS011;73737;52.364;17.120;2024-02-16T10:00:10;14.40;;;12.60;;
83747;SDS011;73737;52.364;17.120;2024-02-16T10:02:45;15.10;;;12.20;;
83747;SDS011;73737;52.364;17.120;2024-02-16T10:05:15;13.70;;;9.80;;
83747;SDS011;73737;52.364;17.120;2024-02-16T10:07:53;13.50;;;11.90;;
83747;SDS011;73737;52.364;17.120;2024-02-16T10:10:22;14.50;;;12.60;;
83747;SDS011;73737;52.364;17.120;2024-02-16T10:13:04;14.10;;;12.20;;
83747;SDS011;73737;52.364;17.120;2024-02-16T10:15:34;15.20;;;12.20;;
83747;SDS011;73737;52.364;17.120;2024-02-16T10:18:03;15.00;;;12.60;;
83747;SDS011;73737;52.364;17.120;2024-02-16T10:20:34;14.50;;;12.20;;
83747;SDS011;73737;52.364;17.120;2024-02-16T10:25:32;14.20;;;11.10;;
83747;SDS011;73737;52.364;17.120;2024-02-16T10:28:04;13.00;;;11.10;;
83747;SDS011;73737;52.364;17.120;2024-02-16T10:30:37;14.40;;;10.90;;
83747;SDS011;73737;52.364;17.120;2024-02-16T10:33:07;14.70;;;10.30;;
83747;SDS011;73737;52.364;17.120;2024-02-16T10:35:35;13.50;;;11.40;;
83747;SDS011;73737;52.364;17.120;2024-02-16T10:38:05;13.70;;;10.20;;
83747;SDS011;73737;52.364;17.120;2024-02-16T10:40:40;12.20;;;10.90;;
83747;SDS011;73737;52.364;17.120;2024-02-16T10:43:09;11.90;;;10.50;;
83747;SDS011;73737;52.364;17.120;2024-02-16T10:45:38;13.40;;;11.30;;
83747;SDS011;73737;52.364;17.120;2024-02-16T10:48:07;13.90;;;10.90;;
83747;SDS011;73737;52.364;17.120;2024-02-16T10:50:36;16.30;;;13.00;;
83747;SDS011;73737;52.364;17.120;2024-02-16T10:53:09;18.20;;;14.10;;
83747;SDS011;73737;52.364;17.120;2024-02-16T10:55:50;17.10;;;13.80;;
83747;SDS011;73737;52.364;17.120;2024-02-16T10:58:18;19.70;;;15.00;;
83747;SDS011;73737;52.364;17.120;2024-02-16T11:00:48;41.70;;;25.70;;
83747;SDS011;73737;52.364;17.120;2024-02-16T11:03:26;14.70;;;13.00;;
83747;SDS011;73737;52.364;17.120;2024-02-16T11:05:57;15.70;;;13.10;;
83747;SDS011;73737;52.364;17.120;2024-02-16T11:08:26;17.30;;;14.50;;
83747;SDS011;73737;52.364;17.120;2024-02-16T11:13:31;15.20;;;12.70;;
83747;SDS011;73737;52.364;17.120;2024-02-16T11:16:01;10.70;;;9.10;;
83747;SDS011;73737;52.364;17.120;2024-02-16T11:18:36;14.10;;;10.10;;
83747;SDS011;73737;52.364;17.120;2024-02-16T11:21:05;11.40;;;10.10;;
83747;SDS011;73737;52.364;17.120;2024-02-16T11:23:35;11.40;;;10.20;;
83747;SDS011;73737;52.364;17.120;2024-02-16T11:26:05;20.30;;;13.80;;
83747;SDS011;73737;52.364;17.120;2024-02-16T11:28:42;17.10;;;12.80;;
83747;SDS011;73737;52.364;17.120;2024-02-16T11:31:11;22.60;;;14.20;;
83747;SDS011;73737;52.364;17.120;2024-02-16T11:33:43;14.00;;;11.70;;
83747;SDS011;73737;52.364;17.120;2024-02-16T11:36:13;13.00;;;10.30;;
83747;SDS011;73737;52.364;17.120;2024-02-16T11:38:41;11.70;;;9.40;;
83747;SDS011;73737;52.364;17.120;2024-02-16T11:41:10;14.10;;;10.30;;
83747;SDS011;73737;52.364;17.120;2024-02-16T11:43:38;13.60;;;11.40;;
83747;SDS011;73737;52.364;17.120;2024-02-16T11:46:13;12.70;;;9.90;;
83747;SDS011;73737;52.364;17.120;2024-02-16T11:48:42;16.30;;;11.10;;
83747;SDS011;73737;52.364;17.120;2024-02-16T11:51:10;16.30;;;11.10;;
83747;SDS011;73737;52.364;17.120;2024-02-16T11:53:38;13.10;;;10.10;;
83747;SDS011;73737;52.364;17.120;2024-02-16T11:56:07;16.60;;;11.10;;
83747;SDS011;73737;52.364;17.120;2024-02-16T11:58:35;17.80;;;13.70;;
83747;SDS011;73737;52.364;17.120;2024-02-16T12:01:04;14.10;;;10.10;;
83747;SDS011;73737;52.364;17.120;2024-02-16T12:03:40;13.60;;;9.00;;
83747;SDS011;73737;52.364;17.120;2024-02-16T12:06:09;13.00;;;9.30;;
83747;SDS011;73737;52.364;17.120;2024-02-16T12:08:37;15.00;;;9.20;;
83747;SDS011;73737;52.364;17.120;2024-02-16T12:11:07;13.60;;;8.70;;
83747;SDS011;73737;52.364;17.120;2024-02-16T12:13:36;11.80;;;8.10;;
83747;SDS011;73737;52.364;17.120;2024-02-16T12:16:05;13.60;;;8.40;;
83747;SDS011;73737;52.364;17.120;2024-02-16T12:18:34;12.50;;;8.30;;
83747;SDS011;73737;52.364;17.120;2024-02-16T12:21:04;11.80;;;7.70;;
83747;SDS011;73737;52.364;17.120;2024-02-16T12:23:33;14.30;;;9.30;;
83747;SDS011;73737;52.364;17.120;2024-02-16T12:26:02;11.20;;;7.70;;
83747;SDS011;73737;52.364;17.120;2024-02-16T12:28:32;9.00;;;6.80;;
83747;SDS011;73737;52.364;17.120;2024-02-16T12:31:00;8.40;;;6.60;;
83747;SDS011;73737;52.364;17.120;2024-02-16T12:33:29;9.70;;;6.10;;
83747;SDS011;73737;52.364;17.120;2024-02-16T12:35:57;9.40;;;6.90;;
83747;SDS011;73737;52.364;17.120;2024-02-16T12:38:26;12.90;;;8.80;;
83747;SDS011;73737;52.364;17.120;2024-02-16T12:40:55;16.90;;;9.70;;
83747;SDS011;73737;52.364;17.120;2024-02-16T12:43:23;25.80;;;15.30;;
83747;SDS011;73737;52.364;17.120;2024-02-16T12:45:51;30.60;;;17.50;;
83747;SDS011;73737;52.364;17.120;2024-02-16T12:48:20;14.50;;;11.50;;
83747;SDS011;73737;52.364;17.120;2024-02-16T12:50:48;9.90;;;7.30;;
83747;SDS011;73737;52.364;17.120;2024-02-16T12:53:20;10.40;;;6.70;;
83747;SDS011;73737;52.364;17.120;2024-02-16T12:55:49;9.90;;;6.90;;
83747;SDS011;73737;52.364;17.120;2024-02-16T12:58:17;11.30;;;7.90;;
83747;SDS011;73737;52.364;17.120;2024-02-16T13:00:45;11.60;;;7.80;;
83747;SDS011;73737;52.364;17.120;2024-02-16T13:03:13;11.60;;;7.30;;
83747;SDS011;73737;52.364;17.120;2024-02-16T13:05:42;14.40;;;7.80;;
83747;SDS011;73737;52.364;17.120;2024-02-16T13:08:11;9.70;;;6.90;;
83747;SDS011;73737;52.364;17.120;2024-02-16T13:10:39;11.60;;;7.90;;
83747;SDS011;73737;52.364;17.120;2024-02-16T13:13:07;12.00;;;8.00;;
83747;SDS011;73737;52.364;17.120;2024-02-16T13:15:36;9.20;;;7.20;;
83747;SDS011;73737;52.364;17.120;2024-02-16T13:18:04;11.60;;;7.40;;
83747;SDS011;73737;52.364;17.120;2024-02-16T13:20:32;11.70;;;7.30;;
83747;SDS011;73737;52.364;17.120;2024-02-16T13:23:03;9.80;;;6.60;;
83747;SDS011;73737;52.364;17.120;2024-02-16T13:25:31;9.50;;;7.50;;
83747;SDS011;73737;52.364;17.120;2024-02-16T13:28:00;9.60;;;7.40;;
83747;SDS011;73737;52.364;17.120;2024-02-16T13:30:28;10.90;;;7.30;;
83747;SDS011;73737;52.364;17.120;2024-02-16T13:32:56;9.70;;;6.90;;
83747;SDS011;73737;52.364;17.120;2024-02-16T13:35:25;8.80;;;6.00;;
83747;SDS011;73737;52.364;17.120;2024-02-16T13:37:56;10.60;;;7.50;;
83747;SDS011;73737;52.364;17.120;2024-02-16T13:40:25;10.40;;;8.10;;
83747;SDS011;73737;52.364;17.120;2024-02-16T13:42:53;9.70;;;7.50;;
83747;SDS011;73737;52.364;17.120;2024-02-16T13:45:28;10.10;;;7.80;;
83747;SDS011;73737;52.364;17.120;2024-02-16T13:47:56;12.90;;;8.20;;
83747;SDS011;73737;52.364;17.120;2024-02-16T13:50:26;10.10;;;7.50;;
83747;SDS011;73737;52.364;17.120;2024-02-16T13:52:54;9.40;;;7.40;;
83747;SDS011;73737;52.364;17.120;2024-02-16T13:55:23;10.30;;;8.00;;
83747;SDS011;73737;52.364;17.120;2024-02-16T13:57:51;9.20;;;7.50;;
83747;SDS011;73737;52.364;17.120;2024-02-16T14:00:19;9.80;;;7.50;;
83747;SDS011;73737;52.364;17.120;2024-02-16T14:02:48;12.80;;;8.30;;
83747;SDS011;73737;52.364;17.120;2024-02-16T14:05:16;9.80;;;7.30;;
83747;SDS011;73737;52.364;17.120;2024-02-16T14:07:44;11.60;;;7.70;;
83747;SDS011;73737;52.364;17.120;2024-02-16T14:10:13;10.50;;;6.90;;
83747;SDS011;73737;52.364;17.120;2024-02-16T14:12:42;10.20;;;6.80;;
83747;SDS011;73737;52.364;17.120;2024-02-16T14:15:10;10.10;;;7.60;;
83747;SDS011;73737;52.364;17.120;2024-02-16T14:17:43;11.30;;;7.20;;
83747;SDS011;73737;52.364;17.120;2024-02-16T14:20:11;10.10;;;6.90;;
83747;SDS011;73737;52.364;17.120;2024-02-16T14:22:39;11.60;;;7.30;;
83747;SDS011;73737;52.364;17.120;2024-02-16T14:25:10;10.00;;;7.60;;
83747;SDS011;73737;52.364;17.120;2024-02-16T14:27:39;10.50;;;7.00;;